createdAt,value
2019-06-10T00:02:03.741Z,101701.33
2019-06-10T00:04:50.800Z,101699.02
2019-06-10T00:07:37.458Z,101699.58
2019-06-10T00:10:25.484Z,101692.88
2019-06-10T00:13:12.968Z,101690.19
2019-06-10T00:16:02.694Z,101692.31
2019-06-10T00:18:50.852Z,101686.57
2019-06-10T00:21:36.505Z,101680.62
2019-06-10T00:24:24.189Z,101675.73
2019-06-10T00:27:12.104Z,101674.50
2019-06-10T00:30:02.857Z,101672.20
2019-06-10T00:32:47.524Z,101666.83
2019-06-10T00:35:34.807Z,101655.73
2019-06-10T00:38:22.353Z,101651.30
2019-06-10T00:41:13.684Z,101641.16
2019-06-10T00:44:00.850Z,101637.70
2019-06-10T00:46:46.128Z,101635.09
2019-06-10T00:49:33.688Z,101624.47
2019-06-10T00:52:21.921Z,101624.55
2019-06-10T00:55:10.004Z,101618.70
2019-06-10T00:57:56.513Z,101623.50
2019-06-10T01:00:44.810Z,101624.06
2019-06-10T01:03:32.782Z,101617.05
2019-06-10T01:06:21.445Z,101621.67
2019-06-10T01:09:11.453Z,101614.26
2019-06-10T01:11:56.786Z,101617.13
2019-06-10T01:14:44.314Z,101610.91
2019-06-10T01:17:32.040Z,101610.05
2019-06-10T01:20:21.044Z,101612.73
2019-06-10T01:23:07.329Z,101604.20
2019-06-10T01:25:55.434Z,101602.38
2019-06-10T01:28:42.881Z,101598.84
2019-06-10T01:31:31.703Z,101598.95
2019-06-10T01:34:18.422Z,101600.28
2019-06-10T01:37:06.776Z,101594.52
2019-06-10T01:39:53.896Z,101595.38
2019-06-10T01:42:41.438Z,101596.34
2019-06-10T01:45:31.109Z,101585.53
2019-06-10T01:48:16.700Z,101586.95
2019-06-10T01:51:03.620Z,101582.07
2019-06-10T01:53:51.766Z,101585.66
2019-06-10T01:56:40.898Z,101581.37
2019-06-10T01:59:26.644Z,101581.81
2019-06-10T02:02:17.749Z,101570.72
2019-06-10T02:05:04.636Z,101568.11
2019-06-10T02:07:52.604Z,101559.39
2019-06-10T02:10:41.504Z,101559.88
2019-06-10T02:13:33.459Z,101556.83
2019-06-10T02:16:23.394Z,101552.40
2019-06-10T02:19:07.391Z,101551.54
2019-06-10T02:21:54.928Z,101544.16
2019-06-10T02:24:42.850Z,101544.34
2019-06-10T02:27:31.444Z,101548.06
2019-06-10T02:30:35.041Z,101541.07
2019-06-10T02:33:06.418Z,101531.46
2019-06-10T02:35:54.129Z,101530.23
2019-06-10T02:38:44.490Z,101523.86
2019-06-10T02:41:35.381Z,101512.47
2019-06-10T02:44:21.788Z,101507.41
2019-06-10T02:47:04.420Z,101506.20
2019-06-10T02:49:59.092Z,101499.09
2019-06-10T02:52:39.693Z,101497.08
2019-06-10T02:55:30.905Z,101495.44
2019-06-10T02:58:15.676Z,101489.09
2019-06-10T03:01:04.200Z,101491.41
2019-06-10T03:03:53.923Z,101486.38
2019-06-10T03:06:40.146Z,101480.64
2019-06-10T03:09:29.388Z,101483.12
2019-06-10T03:12:13.752Z,101484.61
2019-06-10T03:15:02.105Z,101489.95
2019-06-10T03:17:48.846Z,101489.89
2019-06-10T03:20:36.170Z,101483.86
2019-06-10T03:23:26.433Z,101485.75
2019-06-10T03:26:12.392Z,101483.55
2019-06-10T03:28:58.435Z,101486.05
2019-06-10T03:31:48.059Z,101476.88
2019-06-10T03:34:41.232Z,101476.55
2019-06-10T03:37:23.292Z,101473.99
2019-06-10T03:40:08.538Z,101472.36
2019-06-10T03:42:55.753Z,101474.41
2019-06-10T03:45:43.123Z,101473.83
2019-06-10T03:48:32.789Z,101472.30
2019-06-10T03:51:19.218Z,101468.58
2019-06-10T03:54:05.909Z,101469.30
2019-06-10T03:56:53.438Z,101462.30
2019-06-10T03:59:42.229Z,101462.04
2019-06-10T04:02:28.702Z,101450.36
2019-06-10T04:05:17.376Z,101444.92
2019-06-10T04:08:03.246Z,101433.34
2019-06-10T04:10:52.102Z,101417.94
2019-06-10T04:13:37.916Z,101426.27
2019-06-10T04:16:26.680Z,101430.33
2019-06-10T04:19:13.089Z,101430.03
2019-06-10T04:21:59.823Z,101434.75
2019-06-10T04:24:47.133Z,101437.13
2019-06-10T04:27:34.506Z,101436.86
2019-06-10T04:30:24.258Z,101447.05
2019-06-10T04:33:10.095Z,101444.47
2019-06-10T04:35:57.501Z,101438.27
2019-06-10T04:38:44.995Z,101439.78
2019-06-10T04:41:32.983Z,101447.93
2019-06-10T04:44:22.886Z,101443.92
2019-06-10T04:47:07.803Z,101439.88
2019-06-10T04:49:55.176Z,101438.55
2019-06-10T04:52:43.081Z,101437.67
2019-06-10T04:55:32.486Z,101428.85
2019-06-10T04:58:19.397Z,101424.83
2019-06-10T05:01:04.944Z,101423.94
2019-06-10T05:03:53.023Z,101422.31
2019-06-10T05:06:42.188Z,101416.66
2019-06-10T05:09:29.434Z,101409.82
2019-06-10T05:12:16.594Z,101413.55
2019-06-10T05:15:04.110Z,101409.75
2019-06-10T05:17:52.686Z,101407.77
2019-06-10T05:20:52.075Z,101415.45
2019-06-10T05:23:26.465Z,101413.44
2019-06-10T05:26:13.655Z,101409.52
2019-06-10T05:29:03.156Z,101411.12
2019-06-10T05:31:52.161Z,101404.13
2019-06-10T05:34:37.270Z,101407.91
2019-06-10T05:37:26.333Z,101402.84
2019-06-10T05:40:12.893Z,101402.22
2019-06-10T05:43:02.422Z,101394.37
2019-06-10T05:45:48.081Z,101393.06
2019-06-10T05:48:35.653Z,101394.50
2019-06-10T05:51:25.811Z,101398.61
2019-06-10T05:54:13.062Z,101392.71
2019-06-10T05:57:02.560Z,101399.71
2019-06-10T05:59:48.553Z,101395.03
2019-06-10T06:02:35.753Z,101392.91
2019-06-10T06:05:23.901Z,101400.44
2019-06-10T06:08:12.583Z,101400.75
2019-06-10T06:10:58.113Z,101410.30
2019-06-10T06:13:45.321Z,101407.52
2019-06-10T06:16:36.303Z,101412.67
2019-06-10T06:19:23.687Z,101410.70
2019-06-10T06:22:12.967Z,101410.19
2019-06-10T06:24:58.965Z,101409.08
2019-06-10T06:27:46.372Z,101411.03
2019-06-10T06:30:36.133Z,101407.98
2019-06-10T06:33:22.171Z,101406.14
2019-06-10T06:36:12.326Z,101391.42
2019-06-10T06:38:57.483Z,101386.27
2019-06-10T06:41:45.364Z,101379.92
2019-06-10T06:44:35.897Z,101377.58
2019-06-10T06:47:22.405Z,101378.53
2019-06-10T06:50:07.746Z,101364.82
2019-06-10T06:53:23.391Z,101362.22
2019-06-10T06:55:43.604Z,101361.34
2019-06-10T06:58:33.462Z,101367.41
2019-06-10T07:01:22.591Z,101359.45
2019-06-10T07:04:07.451Z,101369.05
2019-06-10T07:06:55.658Z,101368.45
2019-06-10T07:09:43.358Z,101366.13
2019-06-10T07:12:33.364Z,101364.91
2019-06-10T07:15:18.941Z,101361.98
2019-06-10T07:18:06.387Z,101354.14
2019-06-10T07:20:54.166Z,101348.89
2019-06-10T07:23:45.560Z,101357.10
2019-06-10T07:26:34.127Z,101346.06
2019-06-10T07:29:19.322Z,101351.70
2019-06-10T07:32:06.735Z,101347.91
2019-06-10T07:34:54.485Z,101341.03
2019-06-10T07:37:44.520Z,101335.48
2019-06-10T07:40:29.523Z,101334.11
2019-06-10T07:43:16.920Z,101339.48
2019-06-10T07:46:04.822Z,101346.52
2019-06-10T07:48:56.371Z,101348.19
2019-06-10T07:51:39.807Z,101347.48
2019-06-10T07:54:27.844Z,101353.67
2019-06-10T07:57:15.048Z,101345.70
2019-06-10T08:00:03.154Z,101348.02
2019-06-10T08:02:49.749Z,101351.84
2019-06-10T08:05:37.753Z,101355.94
2019-06-10T08:08:24.758Z,101354.82
2019-06-10T08:11:13.640Z,101351.27
2019-06-10T08:14:04.361Z,101351.16
2019-06-10T08:16:48.659Z,101345.39
2019-06-10T08:19:40.038Z,101342.42
2019-06-10T08:22:34.238Z,101339.48
2019-06-10T08:25:12.442Z,101331.44
2019-06-10T08:27:58.684Z,101327.20
2019-06-10T08:30:46.223Z,101328.47
2019-06-10T08:33:33.785Z,101332.33
2019-06-10T08:36:22.390Z,101334.67
2019-06-10T08:39:11.935Z,101331.62
2019-06-10T08:41:55.920Z,101324.83
2019-06-10T08:44:44.025Z,101318.52
2019-06-10T08:47:32.655Z,101316.61
2019-06-10T08:50:22.243Z,101323.34
2019-06-10T08:53:14.405Z,101323.04
2019-06-10T08:55:54.692Z,101318.71
2019-06-10T08:58:47.386Z,101318.93
2019-06-10T09:01:29.767Z,101315.52
2019-06-10T09:04:17.279Z,101314.30
2019-06-10T09:07:05.298Z,101311.06
2019-06-10T09:09:54.013Z,101310.02
2019-06-10T09:12:41.262Z,101311.52
2019-06-10T09:15:27.654Z,101309.17
2019-06-10T09:18:19.702Z,101305.38
2019-06-10T09:21:03.274Z,101304.07
2019-06-10T09:23:58.554Z,101302.25
2019-06-10T09:26:39.925Z,101296.47
2019-06-10T09:29:26.030Z,101296.11
2019-06-10T09:32:13.488Z,101299.34
2019-06-10T09:35:03.454Z,101302.53
2019-06-10T09:37:51.588Z,101300.95
2019-06-10T09:40:59.002Z,101291.71
2019-06-10T09:43:37.934Z,101296.40
2019-06-10T09:46:25.348Z,101300.85
2019-06-10T09:49:13.505Z,101294.02
2019-06-10T09:52:03.470Z,101291.63
2019-06-10T09:54:53.606Z,101290.52
2019-06-10T09:57:36.518Z,101277.30
2019-06-10T10:00:37.895Z,101271.70
2019-06-10T10:03:25.103Z,101272.39
2019-06-10T10:06:15.807Z,101264.71
2019-06-10T10:09:03.459Z,101264.37
2019-06-10T10:11:50.614Z,101268.27
2019-06-10T10:14:36.957Z,101269.67
2019-06-10T10:17:24.385Z,101263.67
2019-06-10T10:20:12.331Z,101269.15
2019-06-10T10:22:59.179Z,101266.58
2019-06-10T10:25:48.243Z,101268.75
2019-06-10T10:28:34.748Z,101259.11
2019-06-10T10:31:23.365Z,101242.39
2019-06-10T10:34:09.930Z,101251.28
2019-06-10T10:36:57.518Z,101243.06
2019-06-10T10:39:45.215Z,101246.93
2019-06-10T10:42:42.744Z,101248.78
2019-06-10T10:45:22.533Z,101242.94
2019-06-10T10:48:08.141Z,101233.80
2019-06-10T10:50:56.208Z,101232.13
2019-06-10T10:53:46.536Z,101227.54
2019-06-10T10:56:33.394Z,101234.45
2019-06-10T10:59:19.009Z,101227.38
2019-06-10T11:02:06.337Z,101228.10
2019-06-10T11:04:56.831Z,101221.56
2019-06-10T11:07:42.277Z,101223.18
2019-06-10T11:10:28.879Z,101225.67
2019-06-10T11:13:16.425Z,101212.84
2019-06-10T11:16:03.708Z,101213.26
2019-06-10T11:18:53.790Z,101211.31
2019-06-10T11:21:38.852Z,101203.91
2019-06-10T11:24:36.453Z,101199.88
2019-06-10T11:27:14.407Z,101205.08
2019-06-10T11:30:02.554Z,101197.62
2019-06-10T11:32:53.535Z,101198.71
2019-06-10T11:35:38.206Z,101207.24
2019-06-10T11:38:25.579Z,101204.81
2019-06-10T11:41:13.754Z,101199.97
2019-06-10T11:44:00.869Z,101203.31
2019-06-10T11:46:48.623Z,101205.41
2019-06-10T11:49:36.296Z,101203.74
2019-06-10T11:52:23.618Z,101204.44
2019-06-10T11:55:18.292Z,101195.45
2019-06-10T11:57:59.362Z,101190.03
2019-06-10T12:00:46.749Z,101184.50
2019-06-10T12:03:34.316Z,101186.49
2019-06-10T12:06:22.840Z,101186.37
2019-06-10T12:09:09.374Z,101174.53
2019-06-10T12:12:01.283Z,101167.61
2019-06-10T12:14:44.237Z,101162.84
2019-06-10T12:17:45.595Z,101168.45
2019-06-10T12:20:19.291Z,101173.08
2019-06-10T12:23:06.619Z,101171.27
2019-06-10T12:25:56.708Z,101169.65
2019-06-10T12:28:43.236Z,101165.91
2019-06-10T12:31:30.324Z,101170.57
2019-06-10T12:34:17.774Z,101169.34
2019-06-10T12:37:11.369Z,101166.58
2019-06-10T12:39:56.569Z,101151.81
2019-06-10T12:42:41.573Z,101146.73
2019-06-10T12:45:28.288Z,101146.55
2019-06-10T12:48:15.673Z,101136.97
2019-06-10T12:51:08.811Z,101135.75
2019-06-10T12:53:51.464Z,101132.44
2019-06-10T12:56:38.782Z,101132.77
2019-06-10T12:59:27.086Z,101121.58
2019-06-10T13:02:22.718Z,101110.00
2019-06-10T13:05:05.679Z,101094.92
2019-06-10T13:07:48.503Z,101099.10
2019-06-10T13:10:37.851Z,101101.88
2019-06-10T13:13:25.689Z,101096.75
2019-06-10T13:16:14.170Z,101094.45
2019-06-10T13:19:03.275Z,101090.66
2019-06-10T13:21:48.488Z,101092.43
2019-06-10T13:24:36.063Z,101098.82
2019-06-10T13:27:23.335Z,101094.12
2019-06-10T13:30:10.703Z,101087.23
2019-06-10T13:33:00.095Z,101084.41
2019-06-10T13:35:46.594Z,101090.73
2019-06-10T13:38:33.979Z,101093.04
2019-06-10T13:41:22.772Z,101085.19
2019-06-10T13:44:08.764Z,101077.25
2019-06-10T13:46:56.709Z,101068.98
2019-06-10T13:49:44.074Z,101061.23
2019-06-10T13:52:32.139Z,101061.39
2019-06-10T13:55:18.943Z,101054.70
2019-06-10T13:58:09.610Z,101055.25
2019-06-10T14:00:54.160Z,101052.67
2019-06-10T14:03:43.240Z,101053.92
2019-06-10T14:06:42.713Z,101057.03
2019-06-10T14:09:16.924Z,101052.51
2019-06-10T14:12:04.101Z,101048.72
2019-06-10T14:14:53.295Z,101042.48
2019-06-10T14:17:38.686Z,101036.92
2019-06-10T14:20:26.286Z,101042.27
2019-06-10T14:23:17.440Z,101038.89
2019-06-10T14:26:04.181Z,101028.27
2019-06-10T14:28:48.781Z,101029.41
2019-06-10T14:31:43.589Z,101031.22
2019-06-10T14:34:23.966Z,101018.81
2019-06-10T14:37:12.798Z,101024.53
2019-06-10T14:39:58.787Z,101007.94
2019-06-10T14:42:46.757Z,101008.77
2019-06-10T14:45:34.208Z,101019.82
2019-06-10T14:48:23.484Z,101024.44
2019-06-10T14:51:12.410Z,101024.93
2019-06-10T14:54:03.127Z,101023.60
2019-06-10T14:56:56.369Z,101008.27
2019-06-10T14:59:37.650Z,101010.14
2019-06-10T15:02:25.583Z,101015.22
2019-06-10T15:05:15.575Z,101012.80
2019-06-10T15:08:03.168Z,101019.00
2019-06-10T15:10:48.239Z,101016.72
2019-06-10T15:13:36.256Z,101026.77
2019-06-10T15:16:24.351Z,101042.15
2019-06-10T15:19:19.711Z,101032.42
2019-06-10T15:21:59.747Z,101045.22
2019-06-10T15:24:47.300Z,101048.33
2019-06-10T15:27:34.736Z,101042.84
2019-06-10T15:30:27.135Z,101036.39
2019-06-10T15:33:11.137Z,101041.84
2019-06-10T15:35:57.460Z,101043.67
2019-06-10T15:38:45.535Z,101031.82
2019-06-10T15:41:33.010Z,101024.96
2019-06-10T15:44:41.746Z,101025.23
2019-06-10T15:47:07.811Z,101027.92
2019-06-10T15:49:55.228Z,101020.74
2019-06-10T15:52:43.139Z,101011.64
2019-06-10T15:55:55.515Z,101003.37
2019-06-10T15:58:19.866Z,101001.90
2019-06-10T16:01:06.197Z,101000.11
2019-06-10T16:03:53.593Z,100990.17
2019-06-10T16:06:42.466Z,100995.39
2019-06-10T16:09:29.378Z,100998.50
2019-06-10T16:12:18.295Z,101000.41
2019-06-10T16:15:04.562Z,100990.38
2019-06-10T16:17:53.552Z,100992.75
2019-06-10T16:20:42.746Z,100989.77
2019-06-10T16:23:27.442Z,100997.77
2019-06-10T16:26:16.136Z,100992.47
2019-06-10T16:29:02.843Z,100986.88
2019-06-10T16:31:52.752Z,100986.94
2019-06-10T16:34:37.797Z,101007.73
2019-06-10T16:37:25.789Z,101004.34
2019-06-10T16:40:12.550Z,100999.92
2019-06-10T16:43:00.563Z,101000.66
2019-06-10T16:45:47.806Z,101006.09
2019-06-10T16:48:35.270Z,101004.19
2019-06-10T16:51:23.719Z,100992.44
2019-06-10T16:54:10.118Z,100989.84
2019-06-10T16:56:57.408Z,100985.55
2019-06-10T16:59:44.847Z,100983.05
2019-06-10T17:02:33.132Z,100990.95
2019-06-10T17:05:21.270Z,100987.37
2019-06-10T17:08:08.420Z,100994.00
2019-06-10T17:10:56.610Z,100989.59
2019-06-10T17:13:44.213Z,100986.66
2019-06-10T17:16:32.158Z,100991.45
2019-06-10T17:19:21.251Z,100994.84
2019-06-10T17:22:07.710Z,100993.35
2019-06-10T17:24:55.046Z,100994.38
2019-06-10T17:27:43.015Z,100996.02
2019-06-10T17:30:30.923Z,101000.91
2019-06-10T17:33:20.415Z,100994.16
2019-06-10T17:36:06.159Z,100994.22
2019-06-10T17:38:54.132Z,100991.50
2019-06-10T17:41:42.679Z,100986.33
2019-06-10T17:44:30.725Z,100989.99
2019-06-10T17:47:16.502Z,100991.25
2019-06-10T17:50:05.503Z,100990.61
2019-06-10T17:52:53.640Z,100987.38
2019-06-10T17:55:40.863Z,100992.44
2019-06-10T17:58:40.810Z,100994.08
2019-06-10T18:01:15.935Z,100997.48
2019-06-10T18:04:04.035Z,100996.00
2019-06-10T18:06:52.885Z,101003.48
2019-06-10T18:09:39.419Z,101001.88
2019-06-10T18:12:27.913Z,101005.14
2019-06-10T18:15:14.578Z,100999.46
2019-06-10T18:18:03.504Z,100991.42
2019-06-10T18:20:53.309Z,100998.61
2019-06-10T18:23:37.471Z,100998.90
2019-06-10T18:26:25.300Z,101001.05
2019-06-10T18:29:12.978Z,100994.06
2019-06-10T18:32:03.261Z,100981.30
2019-06-10T18:34:48.645Z,100981.21
2019-06-10T18:37:38.758Z,100978.30
2019-06-10T18:40:24.153Z,100973.52
2019-06-10T18:43:12.169Z,100958.08
2019-06-10T18:45:59.583Z,100957.36
2019-06-10T18:48:46.979Z,100943.99
2019-06-10T18:51:37.016Z,100947.20
2019-06-10T18:54:22.693Z,100951.55
2019-06-10T18:57:09.855Z,100951.67
2019-06-10T18:59:57.949Z,100956.53
2019-06-10T19:02:45.721Z,100961.50
2019-06-10T19:05:34.653Z,100961.41
2019-06-10T19:08:22.342Z,100958.56
2019-06-10T19:11:09.132Z,100958.41
2019-06-10T19:13:59.844Z,100958.97
2019-06-10T19:16:44.091Z,100957.84
2019-06-10T19:19:31.843Z,100951.63
2019-06-10T19:22:19.265Z,100963.19
2019-06-10T19:25:07.277Z,100958.56
2019-06-10T19:27:55.208Z,100955.26
2019-06-10T19:30:44.863Z,100955.70
2019-06-10T19:33:32.465Z,100969.38
2019-06-10T19:36:17.899Z,100975.69
2019-06-10T19:39:06.931Z,100978.70
2019-06-10T19:41:54.502Z,100976.28
2019-06-10T19:44:45.567Z,100971.31
2019-06-10T19:47:32.586Z,100986.20
2019-06-10T19:50:18.085Z,100981.08
2019-06-10T19:53:05.522Z,100984.75
2019-06-10T19:55:53.434Z,100985.25
2019-06-10T19:58:43.424Z,100979.39
2019-06-10T20:01:28.449Z,100981.28
2019-06-10T20:04:18.178Z,100986.42
2019-06-10T20:07:03.786Z,100989.89
2019-06-10T20:09:52.234Z,100992.70
2019-06-10T20:12:38.716Z,100993.74
2019-06-10T20:15:26.125Z,100988.64
2019-06-10T20:18:13.653Z,100993.69
2019-06-10T20:21:02.692Z,100993.23
2019-06-10T20:23:49.507Z,100992.29
2019-06-10T20:26:36.798Z,100992.29
2019-06-10T20:29:24.599Z,100989.21
2019-06-10T20:32:12.209Z,100988.51
2019-06-10T20:34:59.642Z,100981.53
2019-06-10T20:37:47.371Z,100984.84
2019-06-10T20:40:35.454Z,100973.31
2019-06-10T20:43:22.649Z,100981.56
2019-06-10T20:46:09.960Z,100970.53
2019-06-10T20:48:57.240Z,100968.95
2019-06-10T20:51:56.947Z,100970.06
2019-06-10T20:54:32.396Z,100969.83
2019-06-10T20:57:19.598Z,100973.98
2019-06-10T21:00:19.779Z,100967.01
2019-06-10T21:02:55.078Z,100956.38
2019-06-10T21:05:43.702Z,100956.02
2019-06-10T21:08:33.251Z,100940.45
2019-06-10T21:11:18.773Z,100948.66
2019-06-10T21:14:06.112Z,100952.36
2019-06-10T21:16:53.753Z,100943.42
2019-06-10T21:19:44.564Z,100949.51
2019-06-10T21:22:29.003Z,100944.59
2019-06-10T21:25:16.978Z,100941.02
2019-06-10T21:28:04.346Z,100941.59
2019-06-10T21:30:54.932Z,100944.30
2019-06-10T21:33:44.382Z,100942.25
2019-06-10T21:36:29.002Z,100946.55
2019-06-10T21:39:16.401Z,100939.20
2019-06-10T21:42:03.647Z,100931.02
2019-06-10T21:44:52.099Z,100919.88
2019-06-10T21:47:38.396Z,100908.41
2019-06-10T21:50:26.056Z,100905.74
2019-06-10T21:53:13.790Z,100911.13
2019-06-10T21:56:01.182Z,100907.36
2019-06-10T21:58:48.885Z,100917.45
2019-06-10T22:01:36.302Z,100910.00
2019-06-10T22:04:23.675Z,100906.70
2019-06-10T22:07:11.720Z,100911.51
2019-06-10T22:10:02.350Z,100909.44
2019-06-10T22:12:48.032Z,100914.83
2019-06-10T22:15:35.185Z,100907.61
2019-06-10T22:18:23.022Z,100906.73
2019-06-10T22:21:10.204Z,100905.15
2019-06-10T22:23:57.726Z,100906.89
2019-06-10T22:26:45.144Z,100919.11
2019-06-10T22:29:32.569Z,100927.93
2019-06-10T22:32:20.201Z,100933.42
2019-06-10T22:35:08.356Z,100943.84
2019-06-10T22:37:56.670Z,100949.22
2019-06-10T22:40:44.062Z,100958.74
2019-06-10T22:43:32.187Z,100955.20
2019-06-10T22:46:18.689Z,100959.84
2019-06-10T22:49:06.120Z,100962.17
2019-06-10T22:51:56.623Z,100969.50
2019-06-10T22:54:43.069Z,100973.05
2019-06-10T22:57:28.650Z,100971.84
2019-06-10T23:00:16.060Z,100986.04
2019-06-10T23:03:04.052Z,101006.94
2019-06-10T23:05:52.356Z,101013.06
2019-06-10T23:08:38.847Z,101016.11
2019-06-10T23:11:26.373Z,101015.16
2019-06-10T23:14:13.850Z,101002.30
2019-06-10T23:17:03.004Z,101007.19
2019-06-10T23:19:49.428Z,101014.30
2019-06-10T23:22:37.326Z,101009.63
2019-06-10T23:25:24.865Z,101018.08
2019-06-10T23:28:13.109Z,101006.42
2019-06-10T23:31:00.518Z,100996.30
2019-06-10T23:33:47.060Z,100996.41
2019-06-10T23:36:34.678Z,100996.66
2019-06-10T23:39:22.785Z,100996.16
2019-06-10T23:42:12.169Z,100996.91
2019-06-10T23:44:57.499Z,101007.07
2019-06-10T23:47:44.880Z,100997.65
2019-06-10T23:50:32.879Z,100992.98
2019-06-10T23:53:20.244Z,100998.25
2019-06-10T23:56:07.637Z,100995.20
2019-06-10T23:58:56.968Z,100994.95
